Time;durP1;ratioP1;P1;durP2;ratioP2;P2;SDS_P1;SDS_P2;PMS_P1;PMS_P2;Temp;Humidity;BMP_temperature;BMP_pressure;BME280_temperature;BME280_humidity;BME280_pressure;Samples;Min_cycle;Max_cycle;Signal;HPM_P1;HPM_P2
2022/07/15 00:02:28;;;;;;;;;;;;;;;18.42;nan;98249.53;4991799;28;20384;-74
2022/07/15 00:04:58;;;;;;;;;;;;;;;18.37;nan;98247.03;5009755;28;19936;-74
2022/07/15 00:07:27;;;;;;;;;;;;;;;18.30;nan;98262.22;4995301;28;20335;-74
2022/07/15 00:12:41;;;;;;;;;;;;;;;18.30;nan;98256.69;5008554;28;19939;-75
2022/07/15 00:15:34;;;;;;;;;;;;;;;18.22;nan;98249.44;5003699;28;19925;-75
2022/07/15 00:18:03;;;;;;;;;;;;;;;18.23;nan;98259.28;5004318;28;19932;-75
2022/07/15 00:20:33;;;;;;;;;;;;;;;18.17;nan;98257.16;5009644;28;20268;-75
2022/07/15 00:23:02;;;;;;;;;;;;;;;18.07;nan;98258.47;5009557;28;20331;-74
2022/07/15 00:25:30;;;;;;;;;;;;;;;18.01;nan;98257.91;5010343;28;20252;-74
2022/07/15 00:27:58;;;;;;;;;;;;;;;17.95;nan;98253.00;5012606;28;19926;-75
2022/07/15 00:30:29;;;;;;;;;;;;;;;17.88;nan;98255.56;5022923;28;19930;-74
2022/07/15 00:33:06;;;;;;;;;;;;;;;17.89;nan;98252.47;5010079;28;19933;-75
2022/07/15 00:35:36;;;;;;;;;;;;;;;17.87;nan;98252.03;5009091;28;19926;-74
2022/07/15 00:38:05;;;;;;;;;;;;;;;17.85;nan;98256.28;5007323;28;19972;-75
2022/07/15 00:40:42;;;;;;;;;;;;;;;17.80;nan;98252.63;5011008;28;20511;-75
2022/07/15 00:43:10;;;;;;;;;;;;;;;17.64;nan;98260.00;5013194;28;19937;-75
2022/07/15 00:45:39;;;;;;;;;;;;;;;17.62;nan;98259.53;4999257;28;19932;-75
2022/07/15 00:48:07;;;;;;;;;;;;;;;17.69;nan;98267.19;5013351;28;19932;-75
2022/07/15 00:50:38;;;;;;;;;;;;;;;17.56;nan;98260.94;5013545;28;19929;-74
2022/07/15 00:53:07;;;;;;;;;;;;;;;17.55;nan;98264.84;5006184;28;19925;-75
2022/07/15 00:55:37;;;;;;;;;;;;;;;17.65;nan;98267.09;5009561;28;19933;-74
2022/07/15 00:58:06;;;;;;;;;;;;;;;17.69;nan;98268.00;5005160;28;19926;-75
2022/07/15 01:00:35;;;;;;;;;;;;;;;17.74;nan;98273.28;5006391;28;21185;-74
2022/07/15 01:03:03;;;;;;;;;;;;;;;17.69;nan;98270.75;5011246;28;19932;-74
2022/07/15 01:05:31;;;;;;;;;;;;;;;17.63;nan;98272.16;5012571;28;19940;-74
2022/07/15 01:08:01;;;;;;;;;;;;;;;17.65;nan;98264.34;5008157;28;20398;-74
2022/07/15 01:10:30;;;;;;;;;;;;;;;17.62;nan;98272.47;5008708;28;19926;-74
2022/07/15 01:12:58;;;;;;;;;;;;;;;17.69;nan;98270.75;5021735;28;19932;-74
2022/07/15 01:15:30;;;;;;;;;;;;;;;17.70;nan;98266.84;5022433;28;19932;-74
2022/07/15 01:18:00;;;;;;;;;;;;;;;17.68;nan;98266.38;4999718;28;19932;-74
2022/07/15 01:20:28;;;;;;;;;;;;;;;17.65;nan;98275.31;4995000;28;19926;-74
2022/07/15 01:23:01;;;;;;;;;;;;;;;17.67;nan;98278.53;5001779;28;19926;-75
2022/07/15 01:25:35;;;;;;;;;;;;;;;17.66;nan;98282.41;5024593;28;19936;-75
2022/07/15 01:28:07;;;;;;;;;;;;;;;17.62;nan;98289.75;5024041;28;20001;-75
2022/07/15 01:30:36;;;;;;;;;;;;;;;17.59;nan;98284.19;5001806;28;19926;-75
2022/07/15 01:33:05;;;;;;;;;;;;;;;17.58;nan;98286.13;4993905;28;19931;-75
2022/07/15 01:35:34;;;;;;;;;;;;;;;17.59;nan;98284.97;5006174;28;19926;-75
2022/07/15 01:38:03;;;;;;;;;;;;;;;17.63;nan;98291.38;4998179;28;19983;-75
2022/07/15 01:40:32;;;;;;;;;;;;;;;17.61;nan;98285.41;5001559;28;19926;-75
2022/07/15 01:43:00;;;;;;;;;;;;;;;17.60;nan;98286.56;5001968;28;19955;-75
2022/07/15 01:45:29;;;;;;;;;;;;;;;17.53;nan;98278.13;5021919;28;19929;-75
2022/07/15 01:47:57;;;;;;;;;;;;;;;17.41;nan;98287.19;5011418;28;19931;-75
2022/07/15 01:50:43;;;;;;;;;;;;;;;17.35;nan;98282.28;5011284;28;19929;-75
2022/07/15 01:53:17;;;;;;;;;;;;;;;17.26;nan;98282.44;5027010;28;19948;-75
2022/07/15 01:55:46;;;;;;;;;;;;;;;17.32;nan;98289.28;4998627;28;19931;-75
2022/07/15 01:58:14;;;;;;;;;;;;;;;17.37;nan;98288.25;4993481;28;20363;-75
2022/07/15 02:00:43;;;;;;;;;;;;;;;17.28;nan;98283.66;5021474;28;19936;-75
2022/07/15 02:06:05;;;;;;;;;;;;;;;17.36;nan;98289.38;5027284;28;19926;-75
2022/07/15 02:08:58;;;;;;;;;;;;;;;17.42;nan;98282.50;5008144;28;20494;-75
2022/07/15 02:11:30;;;;;;;;;;;;;;;17.43;nan;98289.59;4996454;28;19930;-75
2022/07/15 02:13:59;;;;;;;;;;;;;;;17.43;nan;98286.84;4968870;28;20367;-75
2022/07/15 02:16:28;;;;;;;;;;;;;;;17.46;nan;98294.38;4980200;28;19934;-75
2022/07/15 02:19:30;;;;;;;;;;;;;;;17.47;nan;98290.47;4974733;28;19933;-75
2022/07/15 02:21:59;;;;;;;;;;;;;;;17.46;nan;98288.88;5000972;28;19926;-75
2022/07/15 02:24:29;;;;;;;;;;;;;;;17.51;nan;98292.19;4971241;28;19932;-75
2022/07/15 02:26:59;;;;;;;;;;;;;;;17.50;nan;98289.78;4986017;28;19926;-75
2022/07/15 02:29:28;;;;;;;;;;;;;;;17.43;nan;98284.09;4965831;28;19926;-75
2022/07/15 02:31:56;;;;;;;;;;;;;;;17.38;nan;98285.13;4977212;28;19932;-75
2022/07/15 02:34:25;;;;;;;;;;;;;;;17.37;nan;98285.50;4998256;28;19926;-75
2022/07/15 02:36:52;;;;;;;;;;;;;;;17.35;nan;98283.06;4982215;28;20351;-75
2022/07/15 02:39:44;;;;;;;;;;;;;;;17.34;nan;98289.72;4977983;28;19996;-75
2022/07/15 02:42:15;;;;;;;;;;;;;;;17.34;nan;98294.41;4984652;28;19926;-75
2022/07/15 02:44:43;;;;;;;;;;;;;;;17.30;nan;98294.28;4982403;28;19940;-75
2022/07/15 02:47:36;;;;;;;;;;;;;;;17.25;nan;98295.34;4978253;28;21272;-75
2022/07/15 02:50:06;;;;;;;;;;;;;;;17.24;nan;98298.44;4997426;28;20301;-75
2022/07/15 02:52:36;;;;;;;;;;;;;;;17.22;nan;98296.03;4970557;28;19926;-76
2022/07/15 02:55:05;;;;;;;;;;;;;;;17.18;nan;98300.63;4973872;28;19980;-75
2022/07/15 02:57:34;;;;;;;;;;;;;;;17.20;nan;98301.06;4978857;28;19934;-75
2022/07/15 03:00:03;;;;;;;;;;;;;;;17.21;nan;98299.13;4999955;28;20358;-75
2022/07/15 03:02:31;;;;;;;;;;;;;;;17.20;nan;98300.25;4998165;28;19929;-74
2022/07/15 03:05:05;;;;;;;;;;;;;;;17.16;nan;98302.13;4986127;28;19933;-77
2022/07/15 03:07:35;;;;;;;;;;;;;;;17.06;nan;98305.31;4981407;28;19927;-75
2022/07/15 03:10:03;;;;;;;;;;;;;;;16.94;nan;98322.59;4992736;28;19930;-75
2022/07/15 03:12:31;;;;;;;;;;;;;;;16.81;nan;98318.25;4971329;28;19952;-75
2022/07/15 03:15:01;;;;;;;;;;;;;;;16.73;nan;98323.50;4998351;28;19926;-75
2022/07/15 03:17:31;;;;;;;;;;;;;;;16.73;nan;98323.50;4996236;28;19930;-75
2022/07/15 03:20:00;;;;;;;;;;;;;;;16.79;nan;98323.28;4971992;28;19938;-75
2022/07/15 03:22:30;;;;;;;;;;;;;;;16.81;nan;98329.22;5001848;28;19926;-75
2022/07/15 03:24:59;;;;;;;;;;;;;;;16.82;nan;98320.63;4974311;28;19926;-75
2022/07/15 03:27:27;;;;;;;;;;;;;;;16.83;nan;98327.75;4969510;28;19926;-75
2022/07/15 03:29:56;;;;;;;;;;;;;;;16.61;nan;98328.91;4955872;28;19926;-75
2022/07/15 03:32:27;;;;;;;;;;;;;;;16.81;nan;98334.69;4995203;28;19934;-75
2022/07/15 03:34:59;;;;;;;;;;;;;;;16.69;nan;98339.00;4999221;28;20388;-75
2022/07/15 03:37:30;;;;;;;;;;;;;;;16.63;nan;98340.38;5002410;28;20348;-75
2022/07/15 03:39:58;;;;;;;;;;;;;;;16.61;nan;98342.63;4967096;28;19986;-75
2022/07/15 03:42:27;;;;;;;;;;;;;;;16.63;nan;98337.63;5002338;28;19926;-74
2022/07/15 03:44:55;;;;;;;;;;;;;;;16.56;nan;98342.84;5000946;28;19927;-75
2022/07/15 03:47:29;;;;;;;;;;;;;;;16.47;nan;98342.16;4958630;28;20237;-75
2022/07/15 03:49:58;;;;;;;;;;;;;;;16.41;nan;98349.00;4982595;28;19934;-75
2022/07/15 03:52:26;;;;;;;;;;;;;;;16.39;nan;98352.06;5000493;28;19973;-74
2022/07/15 03:54:54;;;;;;;;;;;;;;;16.44;nan;98359.28;5018286;28;19929;-75
2022/07/15 03:57:24;;;;;;;;;;;;;;;16.32;nan;98365.53;5001696;28;19933;-75
2022/07/15 03:59:52;;;;;;;;;;;;;;;16.13;nan;98354.28;4968523;28;19930;-75
2022/07/15 04:02:20;;;;;;;;;;;;;;;16.09;nan;98364.31;4964870;28;20261;-75
2022/07/15 04:04:52;;;;;;;;;;;;;;;16.17;nan;98360.69;4974151;28;19933;-76
2022/07/15 04:07:21;;;;;;;;;;;;;;;16.21;nan;98365.16;4967894;28;19926;-76
2022/07/15 04:09:49;;;;;;;;;;;;;;;16.16;nan;98368.13;4980309;28;19926;-75
2022/07/15 04:12:17;;;;;;;;;;;;;;;16.16;nan;98370.84;4973168;28;19926;-76
2022/07/15 04:14:45;;;;;;;;;;;;;;;16.23;nan;98368.34;4975504;28;19948;-75
2022/07/15 04:17:42;;;;;;;;;;;;;;;16.22;nan;98379.66;4981384;28;20017;-75
2022/07/15 04:20:13;;;;;;;;;;;;;;;16.09;nan;98365.13;5000403;28;19976;-75
2022/07/15 04:22:47;;;;;;;;;;;;;;;16.08;nan;98368.19;5004424;28;19932;-75
2022/07/15 04:25:16;;;;;;;;;;;;;;;16.15;nan;98369.25;4974614;28;19927;-75
2022/07/15 04:27:44;;;;;;;;;;;;;;;16.27;nan;98381.41;4971399;28;19975;-75
2022/07/15 04:30:13;;;;;;;;;;;;;;;16.16;nan;98381.03;4959203;28;19926;-75
2022/07/15 04:32:47;;;;;;;;;;;;;;;15.86;nan;98375.63;4992276;28;19926;-75
2022/07/15 04:35:17;;;;;;;;;;;;;;;15.78;nan;98373.75;5008304;28;19926;-75
2022/07/15 04:37:50;;;;;;;;;;;;;;;15.83;nan;98379.03;5021403;28;20352;-75
2022/07/15 04:40:19;;;;;;;;;;;;;;;15.99;nan;98376.50;5025763;28;19944;-76
2022/07/15 04:42:47;;;;;;;;;;;;;;;15.77;nan;98377.66;4995213;28;19926;-75
2022/07/15 04:45:16;;;;;;;;;;;;;;;15.69;nan;98376.56;5021971;28;19926;-76
2022/07/15 04:47:44;;;;;;;;;;;;;;;15.61;nan;98377.41;5023693;28;19926;-75
2022/07/15 04:53:06;;;;;;;;;;;;;;;15.59;nan;98382.41;5010416;28;19926;-75
2022/07/15 04:55:35;;;;;;;;;;;;;;;15.69;nan;98383.97;5027223;28;20017;-75
2022/07/15 04:58:04;;;;;;;;;;;;;;;15.83;nan;98378.25;4996159;28;20418;-78
2022/07/15 05:00:33;;;;;;;;;;;;;;;15.75;nan;98381.84;5013708;28;19974;-78
2022/07/15 05:03:04;;;;;;;;;;;;;;;15.77;nan;98379.59;5008840;28;19932;-78
2022/07/15 05:05:35;;;;;;;;;;;;;;;15.91;nan;98382.84;4993203;28;19944;-77
2022/07/15 05:08:04;;;;;;;;;;;;;;;16.01;nan;98384.38;5023462;28;19925;-77
2022/07/15 05:10:38;;;;;;;;;;;;;;;15.51;nan;98383.28;5022617;28;20375;-76
2022/07/15 05:13:06;;;;;;;;;;;;;;;15.40;nan;98387.53;5004795;28;19936;-77
2022/07/15 05:15:35;;;;;;;;;;;;;;;15.73;nan;98389.59;4984417;28;19948;-76
2022/07/15 05:18:14;;;;;;;;;;;;;;;15.86;nan;98392.06;4986210;28;19926;-77
2022/07/15 05:20:45;;;;;;;;;;;;;;;15.90;nan;98394.94;4979253;28;19957;-77
2022/07/15 05:23:18;;;;;;;;;;;;;;;16.19;nan;98444.22;4999091;28;19936;-76
2022/07/15 05:25:57;;;;;;;;;;;;;;;16.12;nan;98388.31;4965882;28;20341;-75
2022/07/15 05:28:24;;;;;;;;;;;;;;;16.30;nan;98398.00;4973217;28;19926;-75
2022/07/15 05:30:52;;;;;;;;;;;;;;;16.34;nan;98392.63;4992999;28;19930;-77
2022/07/15 05:33:22;;;;;;;;;;;;;;;16.41;nan;98393.69;4998279;28;19929;-76
2022/07/15 05:35:52;;;;;;;;;;;;;;;16.45;nan;98393.78;4967401;28;20029;-76
2022/07/15 05:38:27;;;;;;;;;;;;;;;16.38;nan;98399.03;5003517;28;20372;-75
2022/07/15 05:40:55;;;;;;;;;;;;;;;16.41;nan;98401.13;4988029;28;19926;-75
2022/07/15 05:43:30;;;;;;;;;;;;;;;16.49;nan;98400.22;4972766;28;19934;-78
2022/07/15 05:45:59;;;;;;;;;;;;;;;16.54;nan;98401.94;4983249;28;19952;-75
2022/07/15 05:48:30;;;;;;;;;;;;;;;16.49;nan;98406.50;4987498;28;19926;-78
2022/07/15 05:51:00;;;;;;;;;;;;;;;16.79;nan;98402.84;5003656;28;19977;-79
2022/07/15 05:53:28;;;;;;;;;;;;;;;16.75;nan;98397.22;4968216;28;19942;-78
2022/07/15 05:55:57;;;;;;;;;;;;;;;16.91;nan;98400.91;5002406;28;19941;-81
2022/07/15 05:58:25;;;;;;;;;;;;;;;17.09;nan;98407.00;4988939;28;20403;-83
2022/07/15 06:00:55;;;;;;;;;;;;;;;17.25;nan;98405.16;4998273;28;20377;-80
2022/07/15 06:03:29;;;;;;;;;;;;;;;17.16;nan;98407.25;4966339;28;19932;-80
2022/07/15 06:06:01;;;;;;;;;;;;;;;17.19;nan;98409.28;5004558;28;20358;-83
2022/07/15 06:08:57;;;;;;;;;;;;;;;17.28;nan;98412.72;5006995;28;20292;-74
2022/07/15 06:11:25;;;;;;;;;;;;;;;17.51;nan;98412.25;4973187;28;19937;-78
2022/07/15 06:13:53;;;;;;;;;;;;;;;17.45;nan;98413.63;4986989;28;19940;-81
2022/07/15 06:16:22;;;;;;;;;;;;;;;17.62;nan;98413.38;4950610;28;19948;-76
2022/07/15 06:18:50;;;;;;;;;;;;;;;17.41;nan;98419.00;4954865;28;19926;-77
2022/07/15 06:21:20;;;;;;;;;;;;;;;17.59;nan;98422.34;4954921;28;20005;-76
2022/07/15 06:23:48;;;;;;;;;;;;;;;17.64;nan;98411.13;4969519;28;20377;-75
2022/07/15 06:26:19;;;;;;;;;;;;;;;17.77;nan;98411.91;4956352;28;19940;-75
2022/07/15 06:28:49;;;;;;;;;;;;;;;17.84;nan;98414.06;4985541;28;20006;-76
2022/07/15 06:31:23;;;;;;;;;;;;;;;17.99;nan;98414.16;4986323;28;20198;-76
2022/07/15 06:33:52;;;;;;;;;;;;;;;18.18;nan;98419.03;4969058;28;20277;-76
2022/07/15 06:36:23;;;;;;;;;;;;;;;18.27;nan;98411.44;4966354;28;19930;-77
2022/07/15 06:38:51;;;;;;;;;;;;;;;18.35;nan;98403.38;5003343;28;19934;-77
2022/07/15 06:41:19;;;;;;;;;;;;;;;18.38;nan;98405.44;4986971;28;19930;-77
2022/07/15 06:43:50;;;;;;;;;;;;;;;18.42;nan;98418.13;4970579;28;19952;-76
2022/07/15 06:46:43;;;;;;;;;;;;;;;18.48;nan;98416.75;4986135;28;19926;-77
2022/07/15 06:49:11;;;;;;;;;;;;;;;18.28;nan;98413.03;4986198;28;20346;-76
2022/07/15 06:51:41;;;;;;;;;;;;;;;18.04;nan;98411.16;4984769;28;19938;-77
2022/07/15 06:54:11;;;;;;;;;;;;;;;18.29;nan;98409.13;4969394;28;19926;-76
2022/07/15 06:56:39;;;;;;;;;;;;;;;18.39;nan;98409.78;4989331;28;19926;-76
2022/07/15 06:59:07;;;;;;;;;;;;;;;18.17;nan;98409.19;4974613;28;20281;-77
2022/07/15 07:01:36;;;;;;;;;;;;;;;18.43;nan;98411.50;5001718;28;20033;-77
2022/07/15 07:04:04;;;;;;;;;;;;;;;18.61;nan;98409.22;4969703;28;19942;-76
2022/07/15 07:06:33;;;;;;;;;;;;;;;18.68;nan;98414.94;4969313;28;19937;-78
2022/07/15 07:09:05;;;;;;;;;;;;;;;18.77;nan;98417.53;4973785;28;19946;-78
2022/07/15 07:11:33;;;;;;;;;;;;;;;18.82;nan;98425.53;5024603;28;19925;-78
2022/07/15 07:14:01;;;;;;;;;;;;;;;18.77;nan;98418.34;5010871;28;20299;-77
2022/07/15 07:19:22;;;;;;;;;;;;;;;18.98;nan;98420.06;5007616;28;19986;-76
2022/07/15 07:21:52;;;;;;;;;;;;;;;18.96;nan;98412.16;5007487;28;19951;-76
2022/07/15 07:24:21;;;;;;;;;;;;;;;19.01;nan;98406.34;5009119;28;19932;-76
2022/07/15 07:26:49;;;;;;;;;;;;;;;18.77;nan;98407.31;5006754;28;19959;-76
2022/07/15 07:29:22;;;;;;;;;;;;;;;18.58;nan;98401.66;5004814;28;19929;-76
2022/07/15 07:31:50;;;;;;;;;;;;;;;18.98;nan;98412.59;4985045;28;19925;-77
2022/07/15 07:34:18;;;;;;;;;;;;;;;18.82;nan;98412.56;5008908;28;20280;-76
2022/07/15 07:36:46;;;;;;;;;;;;;;;18.75;nan;98404.13;5005440;28;19947;-76
2022/07/15 07:40:05;;;;;;;;;;;;;;;18.99;nan;98402.38;5010206;28;20332;-76
2022/07/15 07:42:34;;;;;;;;;;;;;;;19.10;nan;98404.22;5007695;28;19936;-76
2022/07/15 07:45:03;;;;;;;;;;;;;;;19.18;nan;98405.22;5007000;28;20406;-76
2022/07/15 07:47:31;;;;;;;;;;;;;;;19.09;nan;98408.16;5007427;28;19925;-76
2022/07/15 07:50:22;;;;;;;;;;;;;;;19.31;nan;98401.19;5009202;28;19929;-77
2022/07/15 07:52:54;;;;;;;;;;;;;;;19.47;nan;98397.63;5010811;28;19933;-77
2022/07/15 07:58:16;;;;;;;;;;;;;;;19.66;nan;98403.25;5027832;28;19931;-76
2022/07/15 08:00:44;;;;;;;;;;;;;;;19.56;nan;98403.75;5011523;28;19932;-76
2022/07/15 08:03:13;;;;;;;;;;;;;;;19.47;nan;98403.16;5019554;28;20015;-76
2022/07/15 08:05:41;;;;;;;;;;;;;;;19.38;nan;98395.06;5013983;28;19931;-76
2022/07/15 08:08:12;;;;;;;;;;;;;;;19.33;nan;98396.16;5008062;28;19984;-76
2022/07/15 08:10:41;;;;;;;;;;;;;;;19.35;nan;98401.28;5007961;28;20025;-75
2022/07/15 08:13:16;;;;;;;;;;;;;;;19.31;nan;98398.44;5007116;28;19946;-77
2022/07/15 08:15:44;;;;;;;;;;;;;;;19.29;nan;98400.78;5004185;28;19925;-77
2022/07/15 08:18:12;;;;;;;;;;;;;;;19.42;nan;98398.69;5025521;28;20363;-77
2022/07/15 08:20:41;;;;;;;;;;;;;;;19.63;nan;98401.19;5008452;28;19926;-78
2022/07/15 08:23:11;;;;;;;;;;;;;;;19.77;nan;98398.75;5009228;28;20400;-77
2022/07/15 08:25:39;;;;;;;;;;;;;;;19.87;nan;98397.41;4986638;28;19925;-75
2022/07/15 08:28:07;;;;;;;;;;;;;;;19.96;nan;98394.41;4992276;28;19925;-77
2022/07/15 08:30:37;;;;;;;;;;;;;;;19.87;nan;98400.94;4997470;28;19933;-76
2022/07/15 08:33:05;;;;;;;;;;;;;;;19.82;nan;98404.00;4986732;28;19933;-76
2022/07/15 08:35:34;;;;;;;;;;;;;;;19.81;nan;98404.34;4981563;28;20372;-74
2022/07/15 08:38:05;;;;;;;;;;;;;;;19.57;nan;98405.34;5004665;28;19932;-74
2022/07/15 08:40:33;;;;;;;;;;;;;;;19.65;nan;98398.84;4984876;28;19936;-77
2022/07/15 08:43:02;;;;;;;;;;;;;;;19.67;nan;98393.81;4972146;28;19926;-78
2022/07/15 08:45:30;;;;;;;;;;;;;;;19.71;nan;98402.97;4971133;28;19926;-77
2022/07/15 08:47:59;;;;;;;;;;;;;;;19.94;nan;98402.25;5015420;28;19929;-77
2022/07/15 08:50:27;;;;;;;;;;;;;;;19.98;nan;98390.16;5013414;28;19929;-77
2022/07/15 08:53:00;;;;;;;;;;;;;;;20.08;nan;98386.81;5014033;28;19929;-77
2022/07/15 08:55:28;;;;;;;;;;;;;;;20.03;nan;98386.31;4984571;28;19939;-78
2022/07/15 08:57:57;;;;;;;;;;;;;;;20.11;nan;98397.13;5007242;28;19926;-76
2022/07/15 09:00:28;;;;;;;;;;;;;;;20.15;nan;98386.16;5013960;28;19929;-75
2022/07/15 09:02:58;;;;;;;;;;;;;;;20.21;nan;98395.75;5045656;28;20001;-75
2022/07/15 09:05:28;;;;;;;;;;;;;;;20.35;nan;98392.47;5026524;28;19935;-75
2022/07/15 09:07:57;;;;;;;;;;;;;;;20.53;nan;98390.88;5039124;28;19925;-76
2022/07/15 09:13:28;;;;;;;;;;;;;;;20.64;nan;98386.34;5017592;28;19975;-75
2022/07/15 09:16:00;;;;;;;;;;;;;;;20.65;nan;98393.47;5006545;28;19925;-75
2022/07/15 09:18:30;;;;;;;;;;;;;;;20.67;nan;98390.38;5024734;28;20339;-74
2022/07/15 09:20:58;;;;;;;;;;;;;;;20.64;nan;98389.13;5012906;28;19994;-74
2022/07/15 09:23:30;;;;;;;;;;;;;;;20.58;nan;98392.56;5012173;28;19936;-74
2022/07/15 09:25:59;;;;;;;;;;;;;;;20.54;nan;98389.72;5011545;28;19935;-75
2022/07/15 09:28:37;;;;;;;;;;;;;;;20.54;nan;98388.91;5007970;28;19925;-74
2022/07/15 09:33:58;;;;;;;;;;;;;;;20.30;nan;98393.56;5027262;28;19926;-77
2022/07/15 09:36:28;;;;;;;;;;;;;;;20.44;nan;98395.78;5007633;28;19925;-77
2022/07/15 09:39:00;;;;;;;;;;;;;;;20.37;nan;98390.16;5007591;28;19925;-75
2022/07/15 09:41:30;;;;;;;;;;;;;;;20.52;nan;98394.81;5010830;28;20005;-78
2022/07/15 09:44:00;;;;;;;;;;;;;;;20.74;nan;98396.00;5009699;28;19930;-76
2022/07/15 09:46:29;;;;;;;;;;;;;;;20.74;nan;98398.78;5003534;28;19945;-75
2022/07/15 09:48:58;;;;;;;;;;;;;;;20.77;nan;98389.72;5009851;28;19926;-84
2022/07/15 09:51:30;;;;;;;;;;;;;;;20.62;nan;98396.19;5008705;28;19934;-81
2022/07/15 09:53:59;;;;;;;;;;;;;;;20.81;nan;98404.41;5024635;28;20063;-74
2022/07/15 09:56:29;;;;;;;;;;;;;;;20.72;nan;98409.41;5009776;28;20311;-74
2022/07/15 09:58:57;;;;;;;;;;;;;;;20.86;nan;98404.09;5010407;28;19925;-73
2022/07/15 10:01:25;;;;;;;;;;;;;;;20.86;nan;98393.06;5007476;28;19931;-71
2022/07/15 10:03:54;;;;;;;;;;;;;;;20.85;nan;98391.47;5023205;28;20024;-71
2022/07/15 10:06:23;;;;;;;;;;;;;;;20.86;nan;98398.59;5026617;28;19932;-72
2022/07/15 10:09:16;;;;;;;;;;;;;;;21.00;nan;98402.78;5008360;28;20010;-76
2022/07/15 10:12:34;;;;;;;;;;;;;;;20.81;nan;98401.66;4989398;28;20351;-76
2022/07/15 10:15:06;;;;;;;;;;;;;;;20.75;nan;98403.13;4991431;28;19930;-76
2022/07/15 10:17:49;;;;;;;;;;;;;;;20.61;nan;98408.38;4990965;28;19926;-75
2022/07/15 10:20:20;;;;;;;;;;;;;;;20.68;nan;98397.47;4958096;28;20015;-78
2022/07/15 10:22:54;;;;;;;;;;;;;;;20.76;nan;98404.72;4983558;28;19930;-75
2022/07/15 10:25:25;;;;;;;;;;;;;;;20.84;nan;98389.09;4991125;28;19925;-76
2022/07/15 10:27:59;;;;;;;;;;;;;;;21.02;nan;98398.47;4987562;28;19933;-75
2022/07/15 10:30:28;;;;;;;;;;;;;;;20.96;nan;98383.38;4979089;28;19933;-75
2022/07/15 10:33:10;;;;;;;;;;;;;;;21.05;nan;98388.66;4971607;28;19934;-75
2022/07/15 10:35:41;;;;;;;;;;;;;;;21.08;nan;98385.13;4984436;28;20009;-75
2022/07/15 10:38:30;;;;;;;;;;;;;;;21.10;nan;98383.63;4989422;28;20036;-75
2022/07/15 10:40:59;;;;;;;;;;;;;;;21.05;nan;98386.69;5001200;28;20120;-75
2022/07/15 10:43:44;;;;;;;;;;;;;;;20.91;nan;98378.94;4973095;28;20002;-75
2022/07/15 10:46:22;;;;;;;;;;;;;;;20.85;nan;98385.94;4983318;28;19925;-76
2022/07/15 10:48:53;;;;;;;;;;;;;;;20.90;nan;98382.88;5002603;28;19989;-75
2022/07/15 10:51:45;;;;;;;;;;;;;;;20.84;nan;98384.34;4987848;28;19926;-76
2022/07/15 10:54:32;;;;;;;;;;;;;;;20.93;nan;98382.16;4962359;28;19926;-77
2022/07/15 10:57:53;;;;;;;;;;;;;;;21.04;nan;98376.81;5004471;28;19926;-76
2022/07/15 11:00:27;;;;;;;;;;;;;;;21.12;nan;98378.50;4983081;28;19932;-77
2022/07/15 11:03:06;;;;;;;;;;;;;;;21.21;nan;98380.25;4988725;28;19926;-76
2022/07/15 11:05:34;;;;;;;;;;;;;;;21.26;nan;98377.16;5007797;28;20112;-76
2022/07/15 11:08:19;;;;;;;;;;;;;;;21.52;nan;98377.22;4984196;28;19980;-76
2022/07/15 11:10:46;;;;;;;;;;;;;;;21.73;nan;98370.38;4997032;28;19925;-76
2022/07/15 11:13:40;;;;;;;;;;;;;;;21.72;nan;98366.81;4988887;28;19925;-75
2022/07/15 11:16:16;;;;;;;;;;;;;;;21.76;nan;98377.94;4999583;28;20024;-75
2022/07/15 11:18:45;;;;;;;;;;;;;;;21.58;nan;98361.88;4988581;28;19925;-76
2022/07/15 11:21:20;;;;;;;;;;;;;;;21.56;nan;98363.41;4999425;28;20296;-76
2022/07/15 11:26:46;;;;;;;;;;;;;;;21.48;nan;98353.44;4987710;28;19933;-76
2022/07/15 11:29:14;;;;;;;;;;;;;;;21.36;nan;98354.44;4986349;28;19944;-76
2022/07/15 11:31:44;;;;;;;;;;;;;;;21.35;nan;98352.84;4999264;28;19925;-76
2022/07/15 11:34:12;;;;;;;;;;;;;;;21.45;nan;98350.22;4987305;28;19930;-76
2022/07/15 11:36:40;;;;;;;;;;;;;;;21.56;nan;98344.06;4987541;28;19930;-77
2022/07/15 11:39:09;;;;;;;;;;;;;;;21.86;nan;98339.34;5001836;28;20399;-76
2022/07/15 11:44:32;;;;;;;;;;;;;;;21.85;nan;98332.22;4954854;28;19925;-76
2022/07/15 11:47:29;;;;;;;;;;;;;;;22.03;nan;98334.41;4984760;28;19934;-76
2022/07/15 11:49:59;;;;;;;;;;;;;;;22.22;nan;98335.06;4985467;28;19932;-76
2022/07/15 11:52:27;;;;;;;;;;;;;;;22.32;nan;98328.06;5018952;28;19929;-76
2022/07/15 11:54:56;;;;;;;;;;;;;;;22.32;nan;98333.59;4986367;28;19926;-77
2022/07/15 11:57:24;;;;;;;;;;;;;;;22.18;nan;98325.94;5020375;28;19979;-76
2022/07/15 12:00:04;;;;;;;;;;;;;;;22.25;nan;98327.19;4989055;28;19925;-78
2022/07/15 12:02:40;;;;;;;;;;;;;;;22.22;nan;98328.75;4991961;28;19925;-77
2022/07/15 12:05:10;;;;;;;;;;;;;;;22.11;nan;98327.84;5033417;28;19968;-77
2022/07/15 12:07:41;;;;;;;;;;;;;;;22.09;nan;98330.94;4988771;28;19925;-75
2022/07/15 12:10:09;;;;;;;;;;;;;;;22.07;nan;98315.88;5001463;28;19999;-73
2022/07/15 12:12:42;;;;;;;;;;;;;;;22.17;nan;98318.00;5009830;28;20300;-74
2022/07/15 12:18:05;;;;;;;;;;;;;;;22.25;nan;98327.19;5007941;28;19952;-75
2022/07/15 12:20:33;;;;;;;;;;;;;;;22.19;nan;98321.19;5008160;28;19960;-75
2022/07/15 12:23:05;;;;;;;;;;;;;;;22.21;nan;98324.38;5010079;28;19926;-75
2022/07/15 12:25:34;;;;;;;;;;;;;;;22.07;nan;98322.22;5010791;28;19925;-75
2022/07/15 12:28:03;;;;;;;;;;;;;;;22.11;nan;98327.84;5015430;28;19948;-76
2022/07/15 12:30:32;;;;;;;;;;;;;;;22.11;nan;98319.53;5008209;28;19931;-75
2022/07/15 12:33:18;;;;;;;;;;;;;;;22.12;nan;98318.34;5024360;28;19935;-75
2022/07/15 12:35:49;;;;;;;;;;;;;;;22.21;nan;98316.06;5009053;28;19931;-76
2022/07/15 12:38:27;;;;;;;;;;;;;;;22.17;nan;98313.28;5010130;28;19948;-75
2022/07/15 12:41:03;;;;;;;;;;;;;;;22.29;nan;98303.91;5010169;28;20028;-77
2022/07/15 12:43:49;;;;;;;;;;;;;;;22.42;nan;98298.88;5010996;28;19933;-73
2022/07/15 12:46:36;;;;;;;;;;;;;;;22.39;nan;98300.44;5019544;28;19931;-76
2022/07/15 12:51:58;;;;;;;;;;;;;;;22.47;nan;98301.31;5010202;28;20671;-75
2022/07/15 12:54:26;;;;;;;;;;;;;;;22.72;nan;98309.84;5010400;28;19984;-75
2022/07/15 12:57:30;;;;;;;;;;;;;;;22.67;nan;98315.75;5000105;28;19933;-75
2022/07/15 12:59:59;;;;;;;;;;;;;;;22.65;nan;98299.53;4995382;28;20410;-75
2022/07/15 13:02:27;;;;;;;;;;;;;;;22.49;nan;98305.31;5000792;28;20326;-75
2022/07/15 13:04:56;;;;;;;;;;;;;;;22.31;nan;98307.06;4982061;28;20028;-75
2022/07/15 13:07:25;;;;;;;;;;;;;;;22.07;nan;98302.06;4992858;28;19968;-74
2022/07/15 13:09:53;;;;;;;;;;;;;;;22.36;nan;98301.19;4993111;28;20263;-74
2022/07/15 13:12:21;;;;;;;;;;;;;;;22.42;nan;98298.88;4990413;28;19926;-74
2022/07/15 13:14:49;;;;;;;;;;;;;;;22.44;nan;98302.09;4989021;28;20381;-74
2022/07/15 13:17:42;;;;;;;;;;;;;;;22.46;nan;98289.44;5001171;28;19925;-74
2022/07/15 13:20:13;;;;;;;;;;;;;;;22.48;nan;98292.66;4996170;28;19937;-74
2022/07/15 13:22:41;;;;;;;;;;;;;;;22.53;nan;98296.22;5004672;28;19932;-73
2022/07/15 13:25:09;;;;;;;;;;;;;;;22.49;nan;98293.44;5004459;28;19932;-73
2022/07/15 13:27:38;;;;;;;;;;;;;;;22.46;nan;98280.34;5008396;28;19925;-73
2022/07/15 13:30:06;;;;;;;;;;;;;;;22.41;nan;98286.22;4988659;28;19931;-73
2022/07/15 13:32:34;;;;;;;;;;;;;;;22.32;nan;98283.78;4986419;28;19932;-74
2022/07/15 13:35:02;;;;;;;;;;;;;;;22.21;nan;98282.84;4989505;28;19934;-74
2022/07/15 13:37:32;;;;;;;;;;;;;;;22.16;nan;98286.00;4992029;28;20343;-74
2022/07/15 13:40:00;;;;;;;;;;;;;;;22.25;nan;98289.22;4991883;28;19926;-73
2022/07/15 13:42:34;;;;;;;;;;;;;;;22.28;nan;98280.19;4996337;28;19930;-74
2022/07/15 13:45:02;;;;;;;;;;;;;;;22.36;nan;98284.59;4990682;28;19950;-74
2022/07/15 13:47:55;;;;;;;;;;;;;;;22.36;nan;98290.13;4985226;28;20373;-73
2022/07/15 13:53:11;;;;;;;;;;;;;;;22.30;nan;98288.88;5019602;28;20383;-74
2022/07/15 13:55:42;;;;;;;;;;;;;;;22.33;nan;98284.56;5021222;28;19936;-75
2022/07/15 13:58:11;;;;;;;;;;;;;;;22.23;nan;98281.31;4991893;28;19926;-75
2022/07/15 14:00:40;;;;;;;;;;;;;;;22.36;nan;98286.56;4983705;28;19957;-75
2022/07/15 14:03:09;;;;;;;;;;;;;;;22.27;nan;98284.13;4984586;28;19925;-75
2022/07/15 14:05:37;;;;;;;;;;;;;;;22.36;nan;98276.28;4988731;28;20272;-73
2022/07/15 14:08:05;;;;;;;;;;;;;;;22.34;nan;98275.88;4990230;28;19933;-73